sensor_id;sensor_type;location;lat;lon;timestamp;P1;durP1;ratioP1;P2;durP2;ratioP2
28605;SDS011;46498;49.968;7.754;2023-07-08T00:01:54;13.95;;;8.50;;
28605;SDS011;46498;49.968;7.754;2023-07-08T00:06:55;12.05;;;8.02;;
28605;SDS011;46498;49.968;7.754;2023-07-08T00:11:56;12.75;;;7.95;;
28605;SDS011;46498;49.968;7.754;2023-07-08T00:17:00;13.25;;;8.32;;
28605;SDS011;46498;49.968;7.754;2023-07-08T00:22:02;12.43;;;7.30;;
28605;SDS011;46498;49.968;7.754;2023-07-08T00:27:09;15.27;;;8.43;;
28605;SDS011;46498;49.968;7.754;2023-07-08T00:32:13;17.48;;;7.97;;
28605;SDS011;46498;49.968;7.754;2023-07-08T00:37:16;15.93;;;8.68;;
28605;SDS011;46498;49.968;7.754;2023-07-08T00:42:18;12.20;;;8.15;;
28605;SDS011;46498;49.968;7.754;2023-07-08T00:47:20;13.90;;;8.23;;
28605;SDS011;46498;49.968;7.754;2023-07-08T00:52:25;16.67;;;8.25;;
28605;SDS011;46498;49.968;7.754;2023-07-08T00:57:31;18.17;;;8.57;;
28605;SDS011;46498;49.968;7.754;2023-07-08T01:02:39;13.98;;;8.60;;
28605;SDS011;46498;49.968;7.754;2023-07-08T01:07:53;15.88;;;8.25;;
28605;SDS011;46498;49.968;7.754;2023-07-08T01:12:59;13.35;;;8.43;;
28605;SDS011;46498;49.968;7.754;2023-07-08T01:18:05;13.10;;;7.72;;
28605;SDS011;46498;49.968;7.754;2023-07-08T01:28:13;14.25;;;8.55;;
28605;SDS011;46498;49.968;7.754;2023-07-08T01:33:16;13.83;;;7.70;;
28605;SDS011;46498;49.968;7.754;2023-07-08T01:38:22;14.30;;;8.60;;
28605;SDS011;46498;49.968;7.754;2023-07-08T01:43:26;16.92;;;8.20;;
28605;SDS011;46498;49.968;7.754;2023-07-08T01:48:28;21.80;;;8.95;;
28605;SDS011;46498;49.968;7.754;2023-07-08T01:53:40;14.87;;;8.07;;
28605;SDS011;46498;49.968;7.754;2023-07-08T01:58:42;15.05;;;8.55;;
28605;SDS011;46498;49.968;7.754;2023-07-08T02:03:44;16.45;;;9.38;;
28605;SDS011;46498;49.968;7.754;2023-07-08T02:08:47;13.23;;;8.13;;
28605;SDS011;46498;49.968;7.754;2023-07-08T02:13:47;14.98;;;8.75;;
28605;SDS011;46498;49.968;7.754;2023-07-08T02:18:49;14.70;;;8.60;;
28605;SDS011;46498;49.968;7.754;2023-07-08T02:23:50;13.70;;;8.40;;
28605;SDS011;46498;49.968;7.754;2023-07-08T02:28:52;16.00;;;8.63;;
28605;SDS011;46498;49.968;7.754;2023-07-08T02:33:54;13.30;;;8.18;;
28605;SDS011;46498;49.968;7.754;2023-07-08T02:38:55;15.38;;;7.70;;
28605;SDS011;46498;49.968;7.754;2023-07-08T02:43:56;14.23;;;8.35;;
28605;SDS011;46498;49.968;7.754;2023-07-08T02:48:57;14.13;;;7.97;;
28605;SDS011;46498;49.968;7.754;2023-07-08T02:53:58;12.32;;;7.55;;
28605;SDS011;46498;49.968;7.754;2023-07-08T02:58:59;13.88;;;7.82;;
28605;SDS011;46498;49.968;7.754;2023-07-08T03:04:01;15.40;;;8.37;;
28605;SDS011;46498;49.968;7.754;2023-07-08T03:09:02;16.42;;;8.55;;
28605;SDS011;46498;49.968;7.754;2023-07-08T03:14:03;14.95;;;7.55;;
28605;SDS011;46498;49.968;7.754;2023-07-08T03:19:04;15.30;;;8.07;;
28605;SDS011;46498;49.968;7.754;2023-07-08T03:24:08;13.18;;;8.18;;
28605;SDS011;46498;49.968;7.754;2023-07-08T03:29:15;15.73;;;8.65;;
28605;SDS011;46498;49.968;7.754;2023-07-08T03:34:18;14.23;;;8.32;;
28605;SDS011;46498;49.968;7.754;2023-07-08T03:39:23;33.15;;;10.07;;
28605;SDS011;46498;49.968;7.754;2023-07-08T03:44:24;19.73;;;9.18;;
28605;SDS011;46498;49.968;7.754;2023-07-08T03:49:26;21.83;;;9.32;;
28605;SDS011;46498;49.968;7.754;2023-07-08T03:54:28;18.98;;;8.50;;
28605;SDS011;46498;49.968;7.754;2023-07-08T03:59:31;20.40;;;10.00;;
28605;SDS011;46498;49.968;7.754;2023-07-08T04:04:32;16.80;;;8.48;;
28605;SDS011;46498;49.968;7.754;2023-07-08T04:09:33;16.10;;;8.85;;
28605;SDS011;46498;49.968;7.754;2023-07-08T04:14:34;19.40;;;9.30;;
28605;SDS011;46498;49.968;7.754;2023-07-08T04:19:35;15.60;;;8.18;;
28605;SDS011;46498;49.968;7.754;2023-07-08T04:24:36;15.52;;;8.43;;
28605;SDS011;46498;49.968;7.754;2023-07-08T04:29:37;14.32;;;7.72;;
28605;SDS011;46498;49.968;7.754;2023-07-08T04:34:38;15.73;;;7.80;;
28605;SDS011;46498;49.968;7.754;2023-07-08T04:39:39;17.30;;;8.52;;
28605;SDS011;46498;49.968;7.754;2023-07-08T04:44:40;12.98;;;7.93;;
28605;SDS011;46498;49.968;7.754;2023-07-08T04:49:41;13.40;;;8.25;;
28605;SDS011;46498;49.968;7.754;2023-07-08T04:54:44;12.23;;;7.80;;
28605;SDS011;46498;49.968;7.754;2023-07-08T04:59:45;12.20;;;7.25;;
28605;SDS011;46498;49.968;7.754;2023-07-08T05:04:46;14.57;;;7.50;;
28605;SDS011;46498;49.968;7.754;2023-07-08T05:09:47;13.95;;;7.93;;
28605;SDS011;46498;49.968;7.754;2023-07-08T05:14:48;13.90;;;8.27;;
28605;SDS011;46498;49.968;7.754;2023-07-08T05:19:48;14.38;;;8.50;;
28605;SDS011;46498;49.968;7.754;2023-07-08T05:24:52;15.35;;;8.05;;
28605;SDS011;46498;49.968;7.754;2023-07-08T05:29:55;15.63;;;8.82;;
28605;SDS011;46498;49.968;7.754;2023-07-08T05:34:56;12.98;;;7.97;;
28605;SDS011;46498;49.968;7.754;2023-07-08T05:39:57;12.68;;;8.20;;
28605;SDS011;46498;49.968;7.754;2023-07-08T05:45:01;13.25;;;7.65;;
28605;SDS011;46498;49.968;7.754;2023-07-08T05:50:03;13.77;;;7.50;;
28605;SDS011;46498;49.968;7.754;2023-07-08T05:55:05;13.05;;;7.37;;
28605;SDS011;46498;49.968;7.754;2023-07-08T06:00:07;12.57;;;6.97;;
28605;SDS011;46498;49.968;7.754;2023-07-08T06:05:12;11.85;;;6.78;;
28605;SDS011;46498;49.968;7.754;2023-07-08T06:10:13;11.18;;;7.22;;
28605;SDS011;46498;49.968;7.754;2023-07-08T06:15:14;13.45;;;7.12;;
28605;SDS011;46498;49.968;7.754;2023-07-08T06:20:15;12.30;;;7.30;;
28605;SDS011;46498;49.968;7.754;2023-07-08T06:25:16;12.45;;;7.37;;
28605;SDS011;46498;49.968;7.754;2023-07-08T06:30:16;11.05;;;6.78;;
28605;SDS011;46498;49.968;7.754;2023-07-08T06:35:18;11.65;;;7.60;;
28605;SDS011;46498;49.968;7.754;2023-07-08T06:40:19;11.98;;;7.68;;
28605;SDS011;46498;49.968;7.754;2023-07-08T06:45:20;13.43;;;7.12;;
28605;SDS011;46498;49.968;7.754;2023-07-08T06:50:21;14.40;;;7.75;;
28605;SDS011;46498;49.968;7.754;2023-07-08T06:55:21;24.10;;;8.38;;
28605;SDS011;46498;49.968;7.754;2023-07-08T07:00:22;19.90;;;8.68;;
28605;SDS011;46498;49.968;7.754;2023-07-08T07:05:24;13.07;;;7.93;;
28605;SDS011;46498;49.968;7.754;2023-07-08T07:10:24;13.23;;;8.15;;
28605;SDS011;46498;49.968;7.754;2023-07-08T07:15:25;11.93;;;7.70;;
28605;SDS011;46498;49.968;7.754;2023-07-08T07:20:26;11.68;;;7.68;;
28605;SDS011;46498;49.968;7.754;2023-07-08T07:25:28;13.55;;;7.40;;
28605;SDS011;46498;49.968;7.754;2023-07-08T07:30:29;13.45;;;8.13;;
28605;SDS011;46498;49.968;7.754;2023-07-08T07:35:29;12.65;;;7.68;;
28605;SDS011;46498;49.968;7.754;2023-07-08T07:40:31;12.98;;;7.37;;
28605;SDS011;46498;49.968;7.754;2023-07-08T07:45:31;15.90;;;8.55;;
28605;SDS011;46498;49.968;7.754;2023-07-08T07:50:33;12.25;;;7.82;;
28605;SDS011;46498;49.968;7.754;2023-07-08T07:55:34;14.67;;;8.07;;
28605;SDS011;46498;49.968;7.754;2023-07-08T08:00:35;12.98;;;6.97;;
28605;SDS011;46498;49.968;7.754;2023-07-08T08:05:36;13.25;;;8.13;;
28605;SDS011;46498;49.968;7.754;2023-07-08T08:10:37;11.50;;;7.15;;
28605;SDS011;46498;49.968;7.754;2023-07-08T08:15:38;19.42;;;8.63;;
28605;SDS011;46498;49.968;7.754;2023-07-08T08:20:40;12.20;;;7.95;;
28605;SDS011;46498;49.968;7.754;2023-07-08T08:25:41;18.73;;;8.00;;
28605;SDS011;46498;49.968;7.754;2023-07-08T08:30:46;13.68;;;7.55;;
28605;SDS011;46498;49.968;7.754;2023-07-08T08:35:51;9.75;;;6.95;;
28605;SDS011;46498;49.968;7.754;2023-07-08T08:40:52;18.50;;;7.82;;
28605;SDS011;46498;49.968;7.754;2023-07-08T08:46:00;10.20;;;7.53;;
28605;SDS011;46498;49.968;7.754;2023-07-08T08:51:09;13.10;;;7.22;;
28605;SDS011;46498;49.968;7.754;2023-07-08T08:56:24;12.90;;;7.43;;
28605;SDS011;46498;49.968;7.754;2023-07-08T09:01:29;16.37;;;7.65;;
28605;SDS011;46498;49.968;7.754;2023-07-08T09:06:31;11.27;;;7.53;;
28605;SDS011;46498;49.968;7.754;2023-07-08T09:11:39;10.88;;;6.93;;
28605;SDS011;46498;49.968;7.754;2023-07-08T09:17:29;12.77;;;7.03;;
28605;SDS011;46498;49.968;7.754;2023-07-08T09:22:40;12.63;;;7.32;;
28605;SDS011;46498;49.968;7.754;2023-07-08T09:28:00;8.32;;;6.32;;
28605;SDS011;46498;49.968;7.754;2023-07-08T09:33:02;10.63;;;7.10;;
28605;SDS011;46498;49.968;7.754;2023-07-08T09:38:08;13.62;;;6.90;;
28605;SDS011;46498;49.968;7.754;2023-07-08T09:43:17;13.70;;;6.62;;
28605;SDS011;46498;49.968;7.754;2023-07-08T09:48:26;15.77;;;7.43;;
28605;SDS011;46498;49.968;7.754;2023-07-08T09:53:34;11.38;;;7.03;;
28605;SDS011;46498;49.968;7.754;2023-07-08T09:58:36;14.97;;;6.30;;
28605;SDS011;46498;49.968;7.754;2023-07-08T10:03:43;12.63;;;7.22;;
28605;SDS011;46498;49.968;7.754;2023-07-08T10:08:45;17.27;;;8.03;;
28605;SDS011;46498;49.968;7.754;2023-07-08T10:19:13;11.98;;;7.20;;
28605;SDS011;46498;49.968;7.754;2023-07-08T10:24:53;14.07;;;7.03;;
28605;SDS011;46498;49.968;7.754;2023-07-08T10:30:13;11.18;;;7.37;;
28605;SDS011;46498;49.968;7.754;2023-07-08T10:35:37;14.87;;;7.40;;
28605;SDS011;46498;49.968;7.754;2023-07-08T10:41:04;11.60;;;7.07;;
28605;SDS011;46498;49.968;7.754;2023-07-08T10:46:23;12.73;;;7.25;;
28605;SDS011;46498;49.968;7.754;2023-07-08T10:51:38;14.63;;;7.60;;
28605;SDS011;46498;49.968;7.754;2023-07-08T10:56:54;12.50;;;7.10;;
28605;SDS011;46498;49.968;7.754;2023-07-08T11:13:14;12.65;;;6.55;;
28605;SDS011;46498;49.968;7.754;2023-07-08T11:18:27;15.93;;;7.03;;
28605;SDS011;46498;49.968;7.754;2023-07-08T11:23:58;11.65;;;7.15;;
28605;SDS011;46498;49.968;7.754;2023-07-08T11:29:09;13.25;;;7.30;;
28605;SDS011;46498;49.968;7.754;2023-07-08T11:34:17;14.50;;;7.30;;
28605;SDS011;46498;49.968;7.754;2023-07-08T11:39:42;10.27;;;7.03;;
28605;SDS011;46498;49.968;7.754;2023-07-08T11:44:46;12.48;;;6.57;;
28605;SDS011;46498;49.968;7.754;2023-07-08T11:49:52;12.00;;;7.18;;
28605;SDS011;46498;49.968;7.754;2023-07-08T11:54:55;13.35;;;7.12;;
28605;SDS011;46498;49.968;7.754;2023-07-08T12:00:45;16.87;;;6.78;;
28605;SDS011;46498;49.968;7.754;2023-07-08T12:07:32;10.98;;;6.90;;
28605;SDS011;46498;49.968;7.754;2023-07-08T12:12:40;11.25;;;6.65;;
28605;SDS011;46498;49.968;7.754;2023-07-08T12:17:42;11.02;;;6.37;;
28605;SDS011;46498;49.968;7.754;2023-07-08T12:22:44;11.98;;;6.72;;
28605;SDS011;46498;49.968;7.754;2023-07-08T12:27:45;11.37;;;6.53;;
28605;SDS011;46498;49.968;7.754;2023-07-08T12:37:47;15.00;;;6.97;;
28605;SDS011;46498;49.968;7.754;2023-07-08T12:42:48;11.10;;;7.30;;
28605;SDS011;46498;49.968;7.754;2023-07-08T12:47:49;9.75;;;6.47;;
28605;SDS011;46498;49.968;7.754;2023-07-08T12:52:50;11.63;;;7.00;;
28605;SDS011;46498;49.968;7.754;2023-07-08T12:57:51;12.73;;;7.00;;
28605;SDS011;46498;49.968;7.754;2023-07-08T13:02:56;12.95;;;7.32;;
28605;SDS011;46498;49.968;7.754;2023-07-08T13:07:58;12.85;;;7.10;;
28605;SDS011;46498;49.968;7.754;2023-07-08T13:13:00;11.27;;;7.40;;
28605;SDS011;46498;49.968;7.754;2023-07-08T13:18:02;14.87;;;7.35;;
28605;SDS011;46498;49.968;7.754;2023-07-08T13:23:04;16.87;;;6.57;;
28605;SDS011;46498;49.968;7.754;2023-07-08T13:28:18;10.40;;;6.97;;
28605;SDS011;46498;49.968;7.754;2023-07-08T13:33:20;22.17;;;8.48;;
28605;SDS011;46498;49.968;7.754;2023-07-08T13:38:21;11.55;;;7.32;;
28605;SDS011;46498;49.968;7.754;2023-07-08T13:43:26;14.85;;;7.72;;
28605;SDS011;46498;49.968;7.754;2023-07-08T13:48:33;14.27;;;8.27;;
28605;SDS011;46498;49.968;7.754;2023-07-08T17:53:47;8.15;;;4.72;;
28605;SDS011;46498;49.968;7.754;2023-07-08T17:58:50;10.40;;;5.37;;
28605;SDS011;46498;49.968;7.754;2023-07-08T18:03:52;22.85;;;7.00;;
28605;SDS011;46498;49.968;7.754;2023-07-08T18:08:54;13.83;;;5.23;;
28605;SDS011;46498;49.968;7.754;2023-07-08T18:13:54;20.85;;;8.93;;
28605;SDS011;46498;49.968;7.754;2023-07-08T18:18:56;22.73;;;10.23;;
28605;SDS011;46498;49.968;7.754;2023-07-08T18:23:57;11.07;;;6.03;;
28605;SDS011;46498;49.968;7.754;2023-07-08T18:28:58;11.60;;;6.70;;
28605;SDS011;46498;49.968;7.754;2023-07-08T18:34:03;16.75;;;6.50;;
28605;SDS011;46498;49.968;7.754;2023-07-08T18:39:07;13.57;;;5.28;;
28605;SDS011;46498;49.968;7.754;2023-07-08T18:44:12;11.70;;;5.82;;
28605;SDS011;46498;49.968;7.754;2023-07-08T18:49:16;11.50;;;5.35;;
28605;SDS011;46498;49.968;7.754;2023-07-08T18:54:18;14.43;;;5.47;;
28605;SDS011;46498;49.968;7.754;2023-07-08T18:59:21;10.25;;;5.87;;
28605;SDS011;46498;49.968;7.754;2023-07-08T19:04:25;14.50;;;5.50;;
28605;SDS011;46498;49.968;7.754;2023-07-08T19:09:29;13.15;;;6.30;;
28605;SDS011;46498;49.968;7.754;2023-07-08T19:14:34;12.82;;;5.50;;
28605;SDS011;46498;49.968;7.754;2023-07-08T19:19:35;14.35;;;5.45;;
28605;SDS011;46498;49.968;7.754;2023-07-08T19:24:36;11.88;;;5.50;;
28605;SDS011;46498;49.968;7.754;2023-07-08T19:29:39;11.55;;;5.50;;
28605;SDS011;46498;49.968;7.754;2023-07-08T19:34:40;14.38;;;6.25;;
28605;SDS011;46498;49.968;7.754;2023-07-08T19:39:41;13.20;;;5.60;;
28605;SDS011;46498;49.968;7.754;2023-07-08T19:44:42;18.05;;;6.03;;
28605;SDS011;46498;49.968;7.754;2023-07-08T19:49:43;12.32;;;4.95;;
28605;SDS011;46498;49.968;7.754;2023-07-08T19:54:44;11.70;;;5.40;;
28605;SDS011;46498;49.968;7.754;2023-07-08T19:59:46;10.60;;;5.50;;
28605;SDS011;46498;49.968;7.754;2023-07-08T20:04:47;8.82;;;4.43;;
28605;SDS011;46498;49.968;7.754;2023-07-08T20:09:48;9.18;;;4.70;;
28605;SDS011;46498;49.968;7.754;2023-07-08T20:14:49;13.00;;;5.55;;
28605;SDS011;46498;49.968;7.754;2023-07-08T20:19:50;11.48;;;5.22;;
28605;SDS011;46498;49.968;7.754;2023-07-08T20:24:51;11.00;;;4.68;;
28605;SDS011;46498;49.968;7.754;2023-07-08T20:29:52;8.63;;;4.43;;
28605;SDS011;46498;49.968;7.754;2023-07-08T20:34:54;10.85;;;4.37;;
28605;SDS011;46498;49.968;7.754;2023-07-08T20:39:55;9.20;;;4.47;;
28605;SDS011;46498;49.968;7.754;2023-07-08T20:44:56;10.05;;;4.35;;
28605;SDS011;46498;49.968;7.754;2023-07-08T20:49:57;8.23;;;4.18;;
28605;SDS011;46498;49.968;7.754;2023-07-08T20:54:58;9.30;;;3.97;;
28605;SDS011;46498;49.968;7.754;2023-07-08T20:59:59;10.73;;;4.28;;
28605;SDS011;46498;49.968;7.754;2023-07-08T21:05:00;10.50;;;4.60;;
28605;SDS011;46498;49.968;7.754;2023-07-08T21:10:00;9.00;;;4.32;;
28605;SDS011;46498;49.968;7.754;2023-07-08T21:15:01;7.55;;;4.55;;
28605;SDS011;46498;49.968;7.754;2023-07-08T21:20:03;6.93;;;4.20;;
28605;SDS011;46498;49.968;7.754;2023-07-08T21:25:04;7.97;;;4.00;;
28605;SDS011;46498;49.968;7.754;2023-07-08T21:30:13;12.37;;;3.87;;
28605;SDS011;46498;49.968;7.754;2023-07-08T21:35:19;9.23;;;3.87;;
28605;SDS011;46498;49.968;7.754;2023-07-08T21:40:28;10.10;;;4.05;;
28605;SDS011;46498;49.968;7.754;2023-07-08T21:45:37;10.35;;;4.53;;
28605;SDS011;46498;49.968;7.754;2023-07-08T21:50:46;7.90;;;3.87;;
28605;SDS011;46498;49.968;7.754;2023-07-08T21:55:49;7.68;;;4.12;;
28605;SDS011;46498;49.968;7.754;2023-07-08T22:00:51;9.10;;;4.53;;
28605;SDS011;46498;49.968;7.754;2023-07-08T22:05:52;5.30;;;3.80;;
28605;SDS011;46498;49.968;7.754;2023-07-08T22:10:57;9.48;;;4.47;;
28605;SDS011;46498;49.968;7.754;2023-07-08T22:16:04;6.85;;;3.72;;
28605;SDS011;46498;49.968;7.754;2023-07-08T22:21:12;7.22;;;4.10;;
28605;SDS011;46498;49.968;7.754;2023-07-08T22:26:18;10.52;;;4.43;;
28605;SDS011;46498;49.968;7.754;2023-07-08T22:31:26;6.93;;;4.32;;
28605;SDS011;46498;49.968;7.754;2023-07-08T22:36:29;7.72;;;4.75;;
28605;SDS011;46498;49.968;7.754;2023-07-08T22:41:33;9.60;;;4.07;;
28605;SDS011;46498;49.968;7.754;2023-07-08T22:46:41;6.32;;;4.10;;
28605;SDS011;46498;49.968;7.754;2023-07-08T22:51:42;8.25;;;4.50;;
28605;SDS011;46498;49.968;7.754;2023-07-08T22:56:47;9.23;;;4.62;;
28605;SDS011;46498;49.968;7.754;2023-07-08T23:01:48;7.90;;;4.93;;
28605;SDS011;46498;49.968;7.754;2023-07-08T23:06:49;7.78;;;4.37;;
28605;SDS011;46498;49.968;7.754;2023-07-08T23:11:51;9.07;;;3.97;;
28605;SDS011;46498;49.968;7.754;2023-07-08T23:16:52;8.82;;;4.40;;
28605;SDS011;46498;49.968;7.754;2023-07-08T23:21:53;14.32;;;4.75;;
28605;SDS011;46498;49.968;7.754;2023-07-08T23:26:54;8.75;;;5.07;;
28605;SDS011;46498;49.968;7.754;2023-07-08T23:31:55;12.65;;;4.87;;
28605;SDS011;46498;49.968;7.754;2023-07-08T23:36:57;10.73;;;4.53;;
28605;SDS011;46498;49.968;7.754;2023-07-08T23:42:03;10.35;;;4.95;;
28605;SDS011;46498;49.968;7.754;2023-07-08T23:47:08;8.70;;;4.95;;
28605;SDS011;46498;49.968;7.754;2023-07-08T23:52:20;12.45;;;4.65;;
28605;SDS011;46498;49.968;7.754;2023-07-08T23:57:21;9.45;;;4.75;;
